CSN0117 KDEN-KBOI
Flight info
| Callsign | CSN0117 |
|---|---|
| Flight time | N/A |
| Altitude | 34000 |
| Route | ZIMMR4 CHNGY DCT REAPS KOURT4 |
| Aircraft | A320/L-SDE2E3FGHIJ1RWXY/LB1 |
Departure
| Time | N/A |
|---|---|
| Airport | Denver International Airport (KDEN) |
Arrival
| Time | 2026-05-09 05:30 |
|---|---|
| Airport | Boise Air Terminal/Gowen Field (KBOI) |
| Time | Latitude | Longitude | Altitude | Speed | Heading |
|---|---|---|---|---|---|
| 2026-05-09 05:14 | 43.27689 | -114.67902 | 17009 ft | 417 kts | 284° |
| 2026-05-09 05:14 | 43.28409 | -114.71708 | 17009 ft | 417 kts | 284° |
| 2026-05-09 05:15 | 43.29135 | -114.75563 | 17009 ft | 417 kts | 284° |
| 2026-05-09 05:15 | 43.29862 | -114.79425 | 17009 ft | 417 kts | 284° |
| 2026-05-09 05:15 | 43.30584 | -114.83268 | 16774 ft | 414 kts | 284° |
| 2026-05-09 05:15 | 43.31297 | -114.87072 | 16048 ft | 409 kts | 284° |
| 2026-05-09 05:16 | 43.31999 | -114.90827 | 15270 ft | 404 kts | 284° |
| 2026-05-09 05:16 | 43.32695 | -114.94547 | 14498 ft | 400 kts | 284° |
| 2026-05-09 05:16 | 43.33384 | -114.98245 | 14122 ft | 400 kts | 284° |
| 2026-05-09 05:16 | 43.34072 | -115.01945 | 13979 ft | 399 kts | 284° |
| 2026-05-09 05:17 | 43.34757 | -115.05638 | 14008 ft | 400 kts | 284° |
| 2026-05-09 05:17 | 43.35436 | -115.09290 | 14012 ft | 400 kts | 284° |
| 2026-05-09 05:17 | 43.36124 | -115.12994 | 14010 ft | 401 kts | 284° |
| 2026-05-09 05:17 | 43.36806 | -115.16689 | 13756 ft | 397 kts | 284° |
| 2026-05-09 05:18 | 43.37480 | -115.20346 | 13002 ft | 392 kts | 284° |
| 2026-05-09 05:18 | 43.38144 | -115.23953 | 12202 ft | 387 kts | 284° |
| 2026-05-09 05:18 | 43.38797 | -115.27513 | 11366 ft | 382 kts | 284° |
| 2026-05-09 05:18 | 43.39440 | -115.31031 | 10527 ft | 377 kts | 284° |
| 2026-05-09 05:19 | 43.40073 | -115.34498 | 9744 ft | 371 kts | 284° |
| 2026-05-09 05:19 | 43.40683 | -115.37842 | 9548 ft | 349 kts | 284° |
| 2026-05-09 05:19 | 43.41254 | -115.40970 | 8917 ft | 341 kts | 284° |
| 2026-05-09 05:19 | 43.41837 | -115.44158 | 7837 ft | 347 kts | 284° |
| 2026-05-09 05:20 | 43.42431 | -115.47400 | 6716 ft | 353 kts | 284° |
| 2026-05-09 05:20 | 43.42216 | -115.49294 | 7788 ft | 179 kts | 238° |
| 2026-05-09 05:20 | 43.41751 | -115.51015 | 8202 ft | 211 kts | 268° |
| 2026-05-09 05:20 | 43.41970 | -115.53149 | 8718 ft | 242 kts | 283° |
| 2026-05-09 05:21 | 43.42521 | -115.55546 | 8875 ft | 284 kts | 294° |
| 2026-05-09 05:21 | 43.43355 | -115.58039 | 8930 ft | 287 kts | 295° |
| 2026-05-09 05:21 | 43.44157 | -115.60515 | 8936 ft | 287 kts | 290° |
| 2026-05-09 05:21 | 43.44789 | -115.63120 | 8936 ft | 287 kts | 283° |
| 2026-05-09 05:22 | 43.45118 | -115.65825 | 8937 ft | 287 kts | 276° |
| 2026-05-09 05:22 | 43.45261 | -115.68568 | 8937 ft | 288 kts | 273° |
| 2026-05-09 05:22 | 43.45225 | -115.71255 | 8936 ft | 272 kts | 263° |
| 2026-05-09 05:22 | 43.45004 | -115.73747 | 8937 ft | 254 kts | 263° |
| 2026-05-09 05:23 | 43.44805 | -115.76081 | 8938 ft | 237 kts | 263° |
| 2026-05-09 05:23 | 43.44623 | -115.78258 | 8938 ft | 221 kts | 263° |
| 2026-05-09 05:23 | 43.44453 | -115.80282 | 8939 ft | 206 kts | 263° |
| 2026-05-09 05:23 | 43.44285 | -115.82233 | 8939 ft | 206 kts | 263° |
| 2026-05-09 05:24 | 43.44164 | -115.84172 | 8936 ft | 206 kts | 270° |
| 2026-05-09 05:24 | 43.44285 | -115.86131 | 8928 ft | 206 kts | 281° |
| 2026-05-09 05:24 | 43.44662 | -115.88018 | 8787 ft | 201 kts | 291° |
| 2026-05-09 05:24 | 43.45217 | -115.89698 | 8601 ft | 188 kts | 295° |
| 2026-05-09 05:25 | 43.45771 | -115.91308 | 8247 ft | 185 kts | 295° |
| 2026-05-09 05:25 | 43.46320 | -115.92911 | 7861 ft | 185 kts | 295° |
| 2026-05-09 05:25 | 43.47410 | -115.96102 | 7106 ft | 184 kts | 295° |
| 2026-05-09 05:26 | 43.47970 | -115.97739 | 6452 ft | 195 kts | 295° |
| 2026-05-09 05:26 | 43.48554 | -115.99440 | 5962 ft | 196 kts | 295° |
| 2026-05-09 05:26 | 43.49132 | -116.01131 | 5521 ft | 194 kts | 295° |
| 2026-05-09 05:26 | 43.49705 | -116.02810 | 5068 ft | 193 kts | 295° |
| 2026-05-09 05:27 | 43.50276 | -116.04480 | 4626 ft | 192 kts | 295° |
| 2026-05-09 05:27 | 43.50823 | -116.06090 | 4325 ft | 183 kts | 295° |
| 2026-05-09 05:27 | 43.51344 | -116.07640 | 4062 ft | 174 kts | 294° |
| 2026-05-09 05:27 | 43.51869 | -116.09188 | 3963 ft | 188 kts | 295° |
| 2026-05-09 05:28 | 43.52445 | -116.10824 | 3958 ft | 186 kts | 295° |
| 2026-05-09 05:28 | 43.52950 | -116.12380 | 3935 ft | 175 kts | 293° |
| 2026-05-09 05:28 | 43.53440 | -116.13896 | 3936 ft | 165 kts | 294° |
| 2026-05-09 05:28 | 43.53894 | -116.15251 | 3828 ft | 149 kts | 295° |
| 2026-05-09 05:29 | 43.54325 | -116.16493 | 3668 ft | 139 kts | 294° |
| 2026-05-09 05:29 | 43.54729 | -116.17683 | 3449 ft | 135 kts | 295° |
| 2026-05-09 05:29 | 43.55136 | -116.18833 | 3245 ft | 132 kts | 295° |
| 2026-05-09 05:29 | 43.55517 | -116.19932 | 3121 ft | 128 kts | 296° |
| 2026-05-09 05:30 | 43.55904 | -116.21029 | 2883 ft | 125 kts | 294° |
| 2026-05-09 05:30 | 43.56191 | -116.21885 | 2853 ft | 57 kts | 295° |
| 2026-05-09 05:30 | 43.56321 | -116.22263 | 2850 ft | 47 kts | 296° |
| 2026-05-09 05:30 | 43.56304 | -116.22438 | 2849 ft | 0 kts | 217° |
| 2026-05-09 05:32 | 43.56286 | -116.22460 | 2852 ft | 13 kts | 226° |
| 2026-05-09 05:33 | 43.56299 | -116.22585 | 2852 ft | 16 kts | 294° |
| 2026-05-09 05:33 | 43.56366 | -116.22782 | 2852 ft | 26 kts | 295° |
| 2026-05-09 05:33 | 43.56448 | -116.23022 | 2850 ft | 30 kts | 295° |
| 2026-05-09 05:33 | 43.56542 | -116.23297 | 2845 ft | 34 kts | 295° |
| 2026-05-09 05:34 | 43.56621 | -116.23560 | 2842 ft | 23 kts | 264° |
| 2026-05-09 05:34 | 43.56605 | -116.23800 | 2836 ft | 28 kts | 265° |
| 2026-05-09 05:34 | 43.56563 | -116.24039 | 2832 ft | 16 kts | 194° |
| 2026-05-09 05:34 | 43.56467 | -116.23989 | 2830 ft | 16 kts | 134° |
| 2026-05-09 05:35 | 43.56393 | -116.24001 | 2829 ft | 11 kts | 190° |
| 2026-05-09 05:35 | 43.56374 | -116.23938 | 2830 ft | 8 kts | 78° |
| 2026-05-09 05:35 | 43.56430 | -116.23905 | 2830 ft | 8 kts | 17° |
| 2026-05-09 05:35 | 43.56445 | -116.23905 | 2831 ft | 0 kts | 349° |